Aeroporto :
LOGIN :

Iscrizione | Disclaimer

   EN    FR    IT 

 










Sommario :    VFR   VFR Marginale   IFR   IFR Intensivo   IFR Molto Intensivo
Visibilità : 
Base nubi : 
>= 8 km
>= 3000ft
5 / 8 km
1000 / 3000 ft
1500m / 5 km
500 / 1000 ft
800 / 1500m
200 / 500 ft
< 800m
< 200 ft
Simboli :   Temporali  Nebbia  Neve Forte  Precipitazioni Forti  Vento > 20 kt
SIGMETs :   Varie  Temporali  Ghiacco  Turbolenza  Onda orograficha  Ceneri Vulcaniche






- Altitudine del aeroporto : 1046 ft
- Codice IATA : NUE


EDDN - Nuremberg

ULTIMO METAR :
  • 221050Z 30004KT 260V340 7000 OVC007 M02/M04 Q1035 NOSIG

METARs OBSOLETI :
  • 221020Z 26004KT 7000 OVC006 M02/M04 Q1035 NOSIG
  • 220950Z 22005KT 190V250 7000 OVC006 M02/M04 Q1034 NOSIG
  • 220920Z 16003KT 080V230 6000 OVC005 M02/M04 Q1034 NOSIG
  • 220850Z 15004KT 080V200 5000 BR OVC004 M02/M03 Q1034 BECMG OVC006
  • 220820Z VRB02KT 5000 BR OVC004 M02/M04 Q1035 BECMG OVC006

TAF TAF EDDN
Valido dal 22 a 06 ore il 23 a 06 ore UTC


220500Z 2206/2306 VRB03KT 6000 OVC004
TEMPO 2206/2209 4000 BR
PROB30
TEMPO 2206/2208 BKN005
BECMG 2208/2211 BKN006
BECMG 2211/2214 BKN011
BECMG 2214/2217 SCT015
TEMPO 2219/2306 BKN008



MetMap, La meteo Aeronautica in un colpo d'occhio ! - Copyright ORBIFLY Dicembre 2007 - Disclaimer

ORBIFLY MET'MAP TEAM :

Programmazione e sviluppo : Alexandra Zaïnal
Concezione : Baudouin d'Aumeries
Aiuto per la programmazione : Marc-Olivier Méhu
Supporto tecnico e logistico : Manuel Goepfert
Aiuto per la traduzione : Arnaldo La Scala

Contatto : metmap@orbifly.com




FONTI E CREDITI :

   NOAA